Time;durP1;ratioP1;P1;durP2;ratioP2;P2;SDS_P1;SDS_P2;PMS_P1;PMS_P2;Temp;Humidity;BMP_temperature;BMP_pressure;BME280_temperature;BME280_humidity;BME280_pressure;Samples;Min_cycle;Max_cycle;Signal;HPM_P1;HPM_P2
2022/09/04 00:00:00;;;;;;;0.60;0.20;;;22.20;98.90;;;;;;4900193;29;20387;-77
2022/09/04 00:02:33;;;;;;;1.50;0.30;;;22.00;97.70;;;;;;4905688;29;20032;-75
2022/09/04 00:05:27;;;;;;;1.67;0.20;;;21.00;98.40;;;;;;4900253;29;20467;-84
2022/09/04 00:08:18;;;;;;;2.17;0.30;;;19.60;99.70;;;;;;4899454;29;20054;-84
2022/09/04 00:10:59;;;;;;;1.60;0.25;;;18.50;99.90;;;;;;4902755;29;20356;-84
2022/09/04 00:13:43;;;;;;;3.80;0.63;;;17.70;99.90;;;;;;4900540;29;20048;-82
2022/09/04 00:16:24;;;;;;;2.55;0.45;;;17.20;99.90;;;;;;4900121;29;20391;-85
2022/09/04 00:19:01;;;;;;;1.83;0.68;;;16.90;99.90;;;;;;4901381;29;20068;-80
2022/09/04 00:21:42;;;;;;;3.25;0.40;;;16.80;99.90;;;;;;4899427;29;20039;-79
2022/09/04 00:24:16;;;;;;;1.63;0.40;;;16.70;99.90;;;;;;4883815;29;20384;-79
2022/09/04 00:27:02;;;;;;;1.48;0.28;;;16.90;99.90;;;;;;4901774;29;20024;-78
2022/09/04 00:29:41;;;;;;;4.07;0.85;;;17.00;99.90;;;;;;4903774;29;20038;-81
2022/09/04 00:32:09;;;;;;;1.45;0.30;;;17.00;99.90;;;;;;4904309;29;20127;-77
2022/09/04 00:35:02;;;;;;;1.52;0.35;;;17.10;99.90;;;;;;4905404;29;20025;-78
2022/09/04 00:37:47;;;;;;;2.10;0.30;;;17.70;99.90;;;;;;4903020;29;20047;-81
2022/09/04 00:40:34;;;;;;;1.90;0.28;;;17.60;99.90;;;;;;4903568;29;20036;-76
2022/09/04 00:43:29;;;;;;;0.80;0.22;;;17.30;99.90;;;;;;4902121;29;20095;-76
2022/09/04 00:46:14;;;;;;;1.95;0.10;;;17.00;99.90;;;;;;4901557;29;20032;-79
2022/09/04 00:49:00;;;;;;;2.88;0.65;;;16.90;99.90;;;;;;4901343;29;20024;-79
2022/09/04 00:51:43;;;;;;;1.60;0.27;;;16.80;99.90;;;;;;4905180;29;20024;-79
2022/09/04 00:54:22;;;;;;;1.95;0.20;;;16.70;99.90;;;;;;4901884;29;20289;-78
2022/09/04 00:57:23;;;;;;;2.00;0.30;;;16.60;99.90;;;;;;4902045;29;20036;-81
2022/09/04 01:00:06;;;;;;;1.83;0.30;;;16.50;99.90;;;;;;4901088;29;20040;-76
2022/09/04 01:02:43;;;;;;;2.83;0.70;;;16.40;99.90;;;;;;4901401;29;20028;-80
2022/09/04 01:05:16;;;;;;;1.73;0.20;;;16.20;99.90;;;;;;4899364;29;20039;-84
2022/09/04 01:08:16;;;;;;;2.42;0.63;;;16.10;99.90;;;;;;4903984;29;20047;-78
2022/09/04 01:10:50;;;;;;;2.28;0.40;;;15.80;99.90;;;;;;4898633;29;20647;-81
2022/09/04 01:13:35;;;;;;;2.28;0.47;;;15.60;99.90;;;;;;4901955;29;20147;-83
2022/09/04 01:16:26;;;;;;;8.20;1.30;;;15.60;99.90;;;;;;4900711;29;20451;-78
2022/09/04 01:19:27;;;;;;;3.58;0.45;;;15.80;99.90;;;;;;4905059;29;20050;-74
2022/09/04 01:22:26;;;;;;;4.28;0.68;;;15.90;99.90;;;;;;4901360;29;20028;-77
2022/09/04 01:25:00;;;;;;;2.05;0.40;;;15.90;99.90;;;;;;4900635;29;20048;-81
2022/09/04 01:27:36;;;;;;;4.18;0.30;;;15.70;99.90;;;;;;4907275;29;20047;-80
2022/09/04 01:30:23;;;;;;;4.43;0.57;;;15.90;99.90;;;;;;4908259;29;20040;-81
2022/09/04 01:33:27;;;;;;;2.60;0.60;;;16.30;99.90;;;;;;4913472;29;20040;-77
2022/09/04 01:36:08;;;;;;;1.55;0.20;;;17.00;99.90;;;;;;4906089;29;20043;-84
2022/09/04 01:38:49;;;;;;;0.95;0.22;;;17.40;99.90;;;;;;4904496;29;20040;-79
2022/09/04 01:41:26;;;;;;;1.10;0.20;;;17.40;99.90;;;;;;4903280;29;20024;-78
2022/09/04 01:43:53;;;;;;;0.93;0.25;;;17.20;99.90;;;;;;4906287;29;20487;-80
2022/09/04 01:46:46;;;;;;;2.80;0.30;;;17.10;99.90;;;;;;4903220;29;20106;-76
2022/09/04 01:49:21;;;;;;;2.28;0.30;;;17.20;99.90;;;;;;4904328;29;20136;-78
2022/09/04 01:52:07;;;;;;;2.22;0.30;;;17.40;99.90;;;;;;4906732;29;20471;-80
2022/09/04 01:55:00;;;;;;;1.95;0.20;;;18.40;99.90;;;;;;4905266;29;20484;-81
2022/09/04 01:58:08;;;;;;;0.82;0.30;;;19.70;99.90;;;;;;4904267;29;20035;-76
2022/09/04 02:00:55;;;;;;;2.05;0.30;;;20.50;98.80;;;;;;4905953;29;20058;-82
2022/09/04 02:03:42;;;;;;;1.35;0.10;;;20.90;98.60;;;;;;4901947;29;20044;-82
2022/09/04 02:06:30;;;;;;;1.90;0.50;;;20.10;97.50;;;;;;4902392;29;20076;-80
2022/09/04 02:09:32;;;;;;;0.73;0.28;;;18.90;99.40;;;;;;4903029;29;20449;-83
2022/09/04 02:12:36;;;;;;;3.10;0.50;;;17.70;99.90;;;;;;4888166;29;20047;-75
2022/09/04 02:15:32;;;;;;;2.83;1.08;;;16.80;99.90;;;;;;4901426;29;20032;-79
2022/09/04 02:18:01;;;;;;;4.75;1.08;;;16.60;99.90;;;;;;4900316;29;20036;-78
2022/09/04 02:20:30;;;;;;;2.20;0.40;;;16.70;99.90;;;;;;4900001;29;20042;-74
2022/09/04 02:23:23;;;;;;;3.47;0.40;;;16.70;99.90;;;;;;4898469;29;20024;-79
2022/09/04 02:26:09;;;;;;;1.20;0.20;;;16.90;99.90;;;;;;4897111;29;20483;-77
2022/09/04 02:29:12;;;;;;;5.07;0.60;;;17.20;99.90;;;;;;4900665;29;20040;-80
2022/09/04 02:31:42;;;;;;;3.20;0.30;;;17.40;99.90;;;;;;4900930;29;20060;-87
2022/09/04 02:34:22;;;;;;;3.58;1.10;;;17.50;99.90;;;;;;4902458;29;20076;-79
2022/09/04 02:37:09;;;;;;;2.00;0.25;;;17.80;99.90;;;;;;4902529;29;20495;-80
2022/09/04 02:40:02;;;;;;;2.30;0.40;;;18.40;99.90;;;;;;4902639;29;20039;-77
2022/09/04 02:42:45;;;;;;;2.47;0.50;;;18.90;99.90;;;;;;4903396;29;20050;-75
2022/09/04 02:45:31;;;;;;;3.90;0.70;;;19.40;99.90;;;;;;4901510;29;20024;-81
2022/09/04 02:48:13;;;;;;;4.45;0.75;;;20.40;99.90;;;;;;4903613;29;22419;-77
2022/09/04 02:50:59;;;;;;;1.98;0.40;;;20.70;99.60;;;;;;4898967;29;20032;-80
2022/09/04 02:53:30;;;;;;;1.38;0.40;;;20.90;99.60;;;;;;4903083;29;20050;-83
2022/09/04 02:56:34;;;;;;;0.75;0.32;;;21.40;99.60;;;;;;4901060;29;20044;-83
2022/09/04 02:59:10;;;;;;;1.90;0.35;;;21.30;98.20;;;;;;4900517;29;20514;-79
2022/09/04 03:01:58;;;;;;;2.38;0.25;;;21.50;98.90;;;;;;4899450;29;20538;-76
2022/09/04 03:04:49;;;;;;;3.40;0.32;;;21.60;97.10;;;;;;4899251;29;20024;-80
2022/09/04 03:08:01;;;;;;;3.42;0.77;;;21.50;96.80;;;;;;4903397;29;22469;-73
2022/09/04 03:10:39;;;;;;;2.05;0.40;;;21.20;97.10;;;;;;4869184;29;20060;-74
2022/09/04 03:13:38;;;;;;;2.25;0.20;;;21.10;97.30;;;;;;4910930;29;20044;-74
2022/09/04 03:16:23;;;;;;;1.30;0.22;;;21.10;97.00;;;;;;4904248;29;20502;-74
2022/09/04 03:19:21;;;;;;;2.38;0.43;;;20.90;95.70;;;;;;4914123;29;20051;-74
2022/09/04 03:22:19;;;;;;;1.45;0.20;;;20.90;96.80;;;;;;4908239;29;20035;-73
2022/09/04 03:25:11;;;;;;;1.30;0.20;;;21.10;97.10;;;;;;4916024;29;20028;-74
2022/09/04 03:27:38;;;;;;;3.50;0.88;;;20.60;97.20;;;;;;4912700;29;20119;-75
2022/09/04 03:30:11;;;;;;;1.00;0.30;;;20.70;97.80;;;;;;4907337;29;20535;-74
2022/09/04 03:33:01;;;;;;;1.05;0.63;;;20.60;96.80;;;;;;4910470;29;20096;-75
2022/09/04 03:35:47;;;;;;;1.08;0.30;;;20.90;97.00;;;;;;4912186;29;20036;-77
2022/09/04 03:38:29;;;;;;;3.30;0.30;;;21.20;96.70;;;;;;4904694;29;20039;-75
2022/09/04 03:41:15;;;;;;;3.10;0.43;;;21.40;96.20;;;;;;4911767;29;20123;-73
2022/09/04 03:43:53;;;;;;;1.10;0.47;;;21.30;95.80;;;;;;4908097;29;20095;-74
2022/09/04 03:47:05;;;;;;;2.20;0.20;;;20.90;94.90;;;;;;4908258;29;20047;-75
2022/09/04 03:49:48;;;;;;;1.40;0.55;;;20.50;96.80;;;;;;4866723;29;20040;-74
2022/09/04 03:52:23;;;;;;;1.75;0.30;;;21.00;96.20;;;;;;4902484;29;20545;-74
2022/09/04 03:54:51;;;;;;;4.55;0.47;;;21.60;96.00;;;;;;4910984;29;20028;-73
2022/09/04 03:57:27;;;;;;;4.43;1.17;;;20.80;96.00;;;;;;4904025;29;20465;-74
2022/09/04 04:00:10;;;;;;;1.15;0.30;;;20.30;97.10;;;;;;4913440;29;20139;-74
2022/09/04 04:02:49;;;;;;;1.83;0.82;;;19.70;97.80;;;;;;4910842;29;20169;-77
2022/09/04 04:05:35;;;;;;;2.00;0.32;;;19.20;98.40;;;;;;4909177;29;20498;-73
2022/09/04 04:08:27;;;;;;;1.17;0.25;;;18.80;99.10;;;;;;4910028;29;20492;-72
2022/09/04 04:11:02;;;;;;;0.20;0.13;;;18.40;99.30;;;;;;4858843;29;20053;-75
2022/09/04 04:13:47;;;;;;;3.83;0.73;;;18.20;99.70;;;;;;4869833;29;20033;-74
2022/09/04 04:16:20;;;;;;;0.93;0.10;;;18.10;99.90;;;;;;4861724;29;20037;-75
2022/09/04 04:19:09;;;;;;;2.13;0.70;;;17.90;99.90;;;;;;4868147;29;20124;-73
2022/09/04 04:21:54;;;;;;;2.13;0.22;;;17.80;99.90;;;;;;4864727;29;20153;-73
2022/09/04 04:24:47;;;;;;;1.85;0.30;;;17.60;99.30;;;;;;4873407;29;20173;-73
2022/09/04 04:27:34;;;;;;;2.95;0.35;;;17.30;99.50;;;;;;4857982;29;20116;-73
2022/09/04 04:30:14;;;;;;;1.38;0.40;;;17.40;99.90;;;;;;4871190;29;20520;-74
2022/09/04 04:32:56;;;;;;;4.88;0.40;;;17.60;99.90;;;;;;4876227;29;20065;-72
2022/09/04 04:35:44;;;;;;;3.97;0.70;;;17.70;99.90;;;;;;4868228;29;20034;-73
2022/09/04 04:38:47;;;;;;;1.52;0.73;;;17.90;99.90;;;;;;4864859;29;20041;-74
2022/09/04 04:42:02;;;;;;;1.80;0.25;;;18.00;99.90;;;;;;4859502;29;20049;-73
2022/09/04 04:45:48;;;;;;;1.20;0.40;;;18.10;99.90;;;;;;4872759;29;20369;-75
2022/09/04 04:47:53;;;;;;;3.47;0.52;;;18.10;99.90;;;;;;4866548;29;20036;-75
2022/09/04 04:51:04;;;;;;;2.85;0.77;;;18.10;99.90;;;;;;4850723;29;20049;-73
2022/09/04 04:53:53;;;;;;;2.50;0.50;;;18.00;99.90;;;;;;4879667;29;20025;-74
2022/09/04 04:56:26;;;;;;;5.43;0.50;;;18.00;99.90;;;;;;4872304;29;20045;-73
2022/09/04 04:59:22;;;;;;;1.77;0.40;;;18.00;99.90;;;;;;4869050;29;20041;-74
2022/09/04 05:02:15;;;;;;;3.88;0.45;;;17.80;99.90;;;;;;4871083;29;20034;-76
2022/09/04 05:04:52;;;;;;;1.50;0.40;;;17.60;99.90;;;;;;4876932;29;20546;-73
2022/09/04 05:07:34;;;;;;;3.17;0.35;;;17.60;99.90;;;;;;4869532;29;20037;-75
2022/09/04 05:10:28;;;;;;;2.53;0.43;;;17.60;99.90;;;;;;4900397;29;20056;-74
2022/09/04 05:13:19;;;;;;;1.70;0.43;;;17.50;99.90;;;;;;4897722;29;20480;-75
2022/09/04 05:16:13;;;;;;;4.80;0.50;;;17.50;99.90;;;;;;4906108;29;20036;-75
2022/09/04 05:18:49;;;;;;;1.45;0.20;;;17.40;99.90;;;;;;4872303;29;20514;-74
2022/09/04 05:21:32;;;;;;;2.47;0.85;;;17.20;99.90;;;;;;4905033;29;20032;-74
2022/09/04 05:24:23;;;;;;;3.55;0.40;;;17.00;99.90;;;;;;4914293;29;20024;-74
2022/09/04 05:27:02;;;;;;;6.75;0.85;;;16.70;99.90;;;;;;4906517;29;20127;-75
2022/09/04 05:30:02;;;;;;;4.60;0.40;;;16.40;99.90;;;;;;4909319;29;20036;-73
2022/09/04 05:32:44;;;;;;;0.63;0.30;;;16.10;99.90;;;;;;4899419;29;20043;-75
2022/09/04 05:35:15;;;;;;;3.17;0.88;;;15.80;99.90;;;;;;4906493;29;20074;-73
2022/09/04 05:38:13;;;;;;;9.95;0.80;;;15.70;99.90;;;;;;4915833;29;20028;-74
2022/09/04 05:41:16;;;;;;;2.92;0.85;;;15.70;99.90;;;;;;4905578;29;20114;-73
2022/09/04 05:44:10;;;;;;;3.53;0.82;;;15.60;99.90;;;;;;4914578;29;20039;-75
2022/09/04 05:47:16;;;;;;;0.65;0.28;;;15.70;99.90;;;;;;4912271;29;20070;-74
2022/09/04 05:50:14;;;;;;;3.97;0.87;;;15.60;99.90;;;;;;4900553;29;20043;-74
2022/09/04 05:53:00;;;;;;;3.47;0.47;;;15.60;99.90;;;;;;4908478;29;20036;-74
2022/09/04 05:55:53;;;;;;;4.40;0.57;;;15.70;99.90;;;;;;4907801;29;20402;-75
2022/09/04 05:58:33;;;;;;;3.10;0.40;;;15.90;99.90;;;;;;4901602;29;20060;-74
2022/09/04 06:01:28;;;;;;;1.08;0.65;;;15.80;99.90;;;;;;4904516;29;20391;-73
2022/09/04 06:04:13;;;;;;;3.85;0.63;;;15.70;99.90;;;;;;4909984;29;20329;-74
2022/09/04 06:06:59;;;;;;;5.05;1.08;;;15.50;99.90;;;;;;4910912;29;20052;-74
2022/09/04 06:09:31;;;;;;;3.53;0.80;;;15.60;99.90;;;;;;4913685;29;20063;-75
2022/09/04 06:12:17;;;;;;;6.35;1.13;;;15.90;99.90;;;;;;4912628;29;20035;-76
2022/09/04 06:14:55;;;;;;;3.17;0.68;;;16.20;99.90;;;;;;4913089;29;20484;-75
2022/09/04 06:17:41;;;;;;;8.05;1.42;;;16.50;99.90;;;;;;4908806;29;20036;-75
2022/09/04 06:20:24;;;;;;;4.57;0.55;;;16.80;99.90;;;;;;4908349;29;20154;-75
2022/09/04 06:23:27;;;;;;;1.50;0.50;;;16.90;99.90;;;;;;4915153;29;20024;-73
2022/09/04 06:26:00;;;;;;;2.80;0.55;;;16.90;99.90;;;;;;4912600;29;20032;-72
2022/09/04 06:28:40;;;;;;;2.63;1.02;;;17.00;99.90;;;;;;4910076;29;20061;-72
2022/09/04 06:31:19;;;;;;;6.32;0.40;;;16.90;99.90;;;;;;4906666;29;20040;-71
2022/09/04 06:34:08;;;;;;;3.45;0.47;;;16.70;99.90;;;;;;4900646;29;20487;-74
2022/09/04 06:36:45;;;;;;;6.97;1.00;;;16.50;99.90;;;;;;4911112;29;20588;-72
2022/09/04 06:39:40;;;;;;;5.78;0.70;;;16.30;99.90;;;;;;4914056;29;20048;-74
2022/09/04 06:42:11;;;;;;;2.78;0.60;;;16.00;99.90;;;;;;4913942;29;20119;-73
2022/09/04 06:45:10;;;;;;;4.68;0.60;;;15.90;99.90;;;;;;4896679;29;20036;-72
2022/09/04 06:48:14;;;;;;;5.95;1.30;;;15.70;99.90;;;;;;4914428;29;20032;-74
2022/09/04 06:50:50;;;;;;;2.22;0.98;;;15.60;99.90;;;;;;4861319;29;20106;-73
2022/09/04 06:53:29;;;;;;;4.30;0.68;;;15.40;99.90;;;;;;4910609;29;20046;-72
2022/09/04 06:56:41;;;;;;;9.48;6.15;;;15.30;99.90;;;;;;4899421;29;20028;-73
2022/09/04 06:59:26;;;;;;;3.38;1.15;;;15.20;99.90;;;;;;4906215;29;20047;-71
2022/09/04 07:02:16;;;;;;;1.95;0.82;;;15.20;99.90;;;;;;4895810;29;20089;-71
2022/09/04 07:04:58;;;;;;;5.75;1.00;;;15.10;99.90;;;;;;4910231;29;20033;-73
2022/09/04 07:08:08;;;;;;;1.63;1.20;;;14.90;99.90;;;;;;4926470;29;20103;-71
2022/09/04 07:10:42;;;;;;;2.03;0.70;;;14.80;99.90;;;;;;4911067;29;20052;-72
2022/09/04 07:13:43;;;;;;;4.20;1.10;;;14.70;99.90;;;;;;4914269;29;20036;-72
2022/09/04 07:16:34;;;;;;;6.47;0.98;;;14.60;99.90;;;;;;4911436;29;20115;-74
2022/09/04 07:19:20;;;;;;;3.78;0.77;;;14.50;99.90;;;;;;4915843;29;20044;-73
2022/09/04 07:22:03;;;;;;;1.58;0.50;;;14.30;99.90;;;;;;4908283;29;20032;-73
2022/09/04 07:24:40;;;;;;;5.68;1.67;;;14.20;99.90;;;;;;4932838;29;20044;-72
2022/09/04 07:27:11;;;;;;;2.95;1.25;;;14.10;99.90;;;;;;4911780;29;20119;-72
2022/09/04 07:29:54;;;;;;;5.43;2.03;;;14.10;99.90;;;;;;4906852;29;20040;-72
2022/09/04 07:32:43;;;;;;;7.90;2.47;;;14.00;99.90;;;;;;4897982;29;20180;-72
2022/09/04 07:35:28;;;;;;;3.20;1.67;;;13.90;99.90;;;;;;4911086;29;20090;-73
2022/09/04 07:38:31;;;;;;;5.07;3.42;;;13.80;99.90;;;;;;4904517;29;20468;-73
2022/09/04 07:41:09;;;;;;;3.10;1.70;;;13.80;99.90;;;;;;4914118;29;20103;-73
2022/09/04 07:43:57;;;;;;;4.30;1.30;;;13.80;99.90;;;;;;4905287;29;20403;-73
2022/09/04 07:46:32;;;;;;;3.70;0.77;;;13.80;99.90;;;;;;4908505;29;20082;-73
2022/09/04 07:49:08;;;;;;;5.53;1.83;;;13.80;99.90;;;;;;4909436;29;20039;-72
2022/09/04 07:51:57;;;;;;;2.40;1.27;;;13.80;99.90;;;;;;4912095;29;20036;-73
2022/09/04 07:54:43;;;;;;;5.45;1.95;;;13.70;99.90;;;;;;4912274;29;20066;-75
2022/09/04 07:57:25;;;;;;;2.13;0.85;;;13.70;99.90;;;;;;4914248;29;20067;-73
2022/09/04 08:00:06;;;;;;;3.22;0.80;;;13.70;99.90;;;;;;4895753;29;20040;-74
2022/09/04 08:03:10;;;;;;;3.72;0.95;;;13.60;99.90;;;;;;4912988;29;20383;-72
2022/09/04 08:06:12;;;;;;;6.40;1.67;;;13.50;99.90;;;;;;4910880;29;20082;-74
2022/09/04 08:08:49;;;;;;;3.28;0.95;;;13.50;99.90;;;;;;4897881;29;20071;-73
2022/09/04 08:11:39;;;;;;;5.70;1.88;;;13.40;99.90;;;;;;4897380;29;20373;-74
2022/09/04 08:14:20;;;;;;;5.70;2.47;;;13.40;99.90;;;;;;4908453;29;20118;-73
2022/09/04 08:17:10;;;;;;;3.85;1.38;;;13.30;99.90;;;;;;4912070;29;20049;-74
2022/09/04 08:19:47;;;;;;;4.55;1.65;;;13.30;99.90;;;;;;4908367;29;20480;-72
2022/09/04 08:22:37;;;;;;;4.55;0.60;;;13.30;99.90;;;;;;4896502;29;20115;-73
2022/09/04 08:25:22;;;;;;;3.35;0.60;;;13.20;99.90;;;;;;4906188;29;20124;-74
2022/09/04 08:28:05;;;;;;;2.17;0.45;;;13.10;99.90;;;;;;4906714;29;20376;-74
2022/09/04 08:30:46;;;;;;;2.55;0.52;;;13.00;99.90;;;;;;4910118;29;20032;-72
2022/09/04 08:33:50;;;;;;;6.13;3.58;;;12.90;99.90;;;;;;4912683;29;20060;-73
2022/09/04 08:36:41;;;;;;;3.22;0.80;;;12.80;99.90;;;;;;4908887;29;20513;-73
2022/09/04 08:39:36;;;;;;;6.80;1.40;;;12.80;99.90;;;;;;4912922;29;20040;-75
2022/09/04 08:42:19;;;;;;;3.42;0.90;;;12.70;99.90;;;;;;4911476;29;20036;-71
2022/09/04 08:45:08;;;;;;;2.67;0.95;;;12.70;99.90;;;;;;4908969;29;20024;-72
2022/09/04 08:47:45;;;;;;;3.60;1.58;;;12.60;99.90;;;;;;4902428;29;20061;-72
2022/09/04 08:50:38;;;;;;;4.43;1.17;;;12.60;99.90;;;;;;4925604;29;20040;-72
2022/09/04 08:53:33;;;;;;;4.35;1.45;;;12.50;99.90;;;;;;4909700;29;20032;-73
2022/09/04 08:56:17;;;;;;;3.28;1.92;;;12.50;99.90;;;;;;4907859;29;20032;-72
2022/09/04 08:59:15;;;;;;;4.72;2.05;;;12.40;99.90;;;;;;4907834;29;20055;-74
2022/09/04 09:01:54;;;;;;;6.47;2.88;;;12.40;99.90;;;;;;4879839;29;20032;-72
2022/09/04 09:04:42;;;;;;;5.40;2.67;;;12.40;99.90;;;;;;4896708;29;20040;-73
2022/09/04 09:07:57;;;;;;;8.63;3.63;;;12.40;99.90;;;;;;4912412;29;20530;-74
2022/09/04 09:10:30;;;;;;;5.68;2.88;;;12.40;99.90;;;;;;4911385;29;20114;-74
2022/09/04 09:13:21;;;;;;;3.28;1.63;;;12.50;99.90;;;;;;4909080;29;20387;-74
2022/09/04 09:16:01;;;;;;;2.35;0.93;;;12.60;99.90;;;;;;4897219;29;20099;-73
2022/09/04 09:18:37;;;;;;;5.82;1.65;;;12.70;99.90;;;;;;4921402;29;20423;-74
2022/09/04 09:21:22;;;;;;;3.58;0.90;;;12.80;99.90;;;;;;4918335;29;20061;-73
2022/09/04 09:23:55;;;;;;;7.70;4.20;;;12.80;99.90;;;;;;4908495;29;20463;-74
2022/09/04 09:26:32;;;;;;;13.35;5.30;;;12.90;99.90;;;;;;4898566;29;20028;-74
2022/09/04 09:29:19;;;;;;;8.68;2.17;;;12.90;99.90;;;;;;4903147;29;20025;-74
2022/09/04 09:32:22;;;;;;;9.68;4.32;;;13.00;99.90;;;;;;4909517;29;20036;-73
2022/09/04 09:35:08;;;;;;;7.18;2.78;;;13.00;99.90;;;;;;4908437;29;20493;-72
2022/09/04 09:37:38;;;;;;;4.40;1.10;;;13.10;99.90;;;;;;4900925;29;20043;-72
2022/09/04 09:40:30;;;;;;;2.00;0.82;;;13.00;99.90;;;;;;4903591;29;20047;-74
2022/09/04 09:43:29;;;;;;;2.20;0.73;;;13.10;99.90;;;;;;4905677;29;20100;-74
2022/09/04 09:46:14;;;;;;;2.75;0.88;;;13.00;99.90;;;;;;4905281;29;20173;-73
2022/09/04 09:49:03;;;;;;;6.53;1.15;;;13.00;99.90;;;;;;4906729;29;20026;-73
2022/09/04 09:51:57;;;;;;;1.20;0.63;;;13.00;99.90;;;;;;4914402;29;20040;-73
2022/09/04 09:54:42;;;;;;;6.53;0.80;;;13.00;99.90;;;;;;4915895;29;20372;-74
2022/09/04 09:57:37;;;;;;;3.40;0.90;;;13.00;99.90;;;;;;4912719;29;20818;-72
2022/09/04 10:00:16;;;;;;;1.88;1.08;;;13.00;99.90;;;;;;4910155;29;20156;-73
2022/09/04 10:02:59;;;;;;;3.08;0.75;;;12.90;99.90;;;;;;4903172;29;20111;-72
2022/09/04 10:05:52;;;;;;;1.55;0.60;;;12.90;99.90;;;;;;4912300;29;20040;-72
2022/09/04 10:08:37;;;;;;;3.35;0.85;;;12.90;99.90;;;;;;4912115;29;20028;-73
2022/09/04 10:11:23;;;;;;;1.17;0.90;;;12.90;99.90;;;;;;4913888;29;20454;-73
2022/09/04 10:14:32;;;;;;;3.13;1.57;;;12.80;99.90;;;;;;4928285;29;20106;-72
2022/09/04 10:17:05;;;;;;;2.55;0.90;;;12.80;99.90;;;;;;4912963;29;20380;-73
2022/09/04 10:19:57;;;;;;;3.63;0.75;;;12.70;99.90;;;;;;4918165;29;20759;-74
2022/09/04 10:22:54;;;;;;;5.22;1.92;;;12.60;99.90;;;;;;4866132;29;20052;-71
2022/09/04 10:25:29;;;;;;;0.90;0.77;;;12.50;99.90;;;;;;4907973;29;20475;-74
2022/09/04 10:28:33;;;;;;;2.58;1.13;;;12.40;99.90;;;;;;4908615;29;20044;-73
2022/09/04 10:31:43;;;;;;;3.20;0.75;;;12.40;99.90;;;;;;4902796;29;20637;-74
2022/09/04 10:34:28;;;;;;;2.97;0.68;;;12.30;99.90;;;;;;4907794;29;20036;-73
2022/09/04 10:37:21;;;;;;;1.15;0.75;;;12.30;99.90;;;;;;4909227;29;20028;-73
2022/09/04 10:40:42;;;;;;;3.60;1.25;;;12.30;99.90;;;;;;4872414;29;20364;-73
2022/09/04 10:43:30;;;;;;;2.75;1.50;;;12.40;99.90;;;;;;4908760;29;20085;-76
2022/09/04 10:46:26;;;;;;;3.95;1.70;;;12.40;99.90;;;;;;4903028;29;20040;-76
2022/09/04 10:49:15;;;;;;;5.68;1.70;;;12.40;99.90;;;;;;4889714;29;20064;-78
2022/09/04 10:52:07;;;;;;;3.45;1.50;;;12.40;99.90;;;;;;4897605;29;20032;-75
2022/09/04 10:55:12;;;;;;;3.45;1.45;;;12.40;99.90;;;;;;4910692;29;20050;-76
2022/09/04 10:57:55;;;;;;;3.85;1.88;;;12.30;99.90;;;;;;4904727;29;20050;-76
2022/09/04 11:00:49;;;;;;;3.92;2.28;;;12.20;99.90;;;;;;4909130;29;20039;-77
2022/09/04 11:03:43;;;;;;;5.20;1.73;;;12.10;99.90;;;;;;4875104;29;20051;-77
2022/09/04 11:06:45;;;;;;;3.72;1.80;;;12.00;99.90;;;;;;4907524;29;20032;-75
2022/09/04 11:09:30;;;;;;;5.35;2.28;;;12.00;99.90;;;;;;4908330;29;20092;-75
2022/09/04 11:12:36;;;;;;;7.25;3.58;;;12.00;99.90;;;;;;4905588;29;20056;-76
2022/09/04 11:15:32;;;;;;;7.13;4.35;;;11.90;99.90;;;;;;4899552;29;20044;-72
2022/09/04 11:18:22;;;;;;;12.27;6.50;;;11.90;99.90;;;;;;4900935;29;20410;-73
2022/09/04 11:21:01;;;;;;;8.23;4.82;;;11.90;99.90;;;;;;4895213;29;20111;-73
2022/09/04 11:23:32;;;;;;;7.25;3.15;;;11.90;99.90;;;;;;4902115;29;20373;-73
2022/09/04 11:26:08;;;;;;;4.32;1.88;;;12.00;99.90;;;;;;4903499;29;20415;-73
2022/09/04 11:28:41;;;;;;;2.53;1.33;;;12.00;99.90;;;;;;4904627;29;20035;-71
2022/09/04 11:31:27;;;;;;;2.88;1.33;;;12.10;99.90;;;;;;4905119;29;20035;-75
2022/09/04 11:34:54;;;;;;;2.00;1.10;;;12.10;99.90;;;;;;4905977;29;20491;-71
2022/09/04 11:38:16;;;;;;;2.70;1.33;;;12.20;99.90;;;;;;4890490;29;20039;-75
2022/09/04 11:41:31;;;;;;;3.42;1.75;;;12.20;99.90;;;;;;4880137;29;20051;-74
2022/09/04 11:44:30;;;;;;;3.63;1.42;;;12.20;99.90;;;;;;4896437;29;20114;-73
2022/09/04 11:47:31;;;;;;;5.28;1.52;;;12.20;99.90;;;;;;4886107;29;20055;-75
2022/09/04 11:50:02;;;;;;;2.50;1.25;;;12.10;99.90;;;;;;4907381;29;20020;-73
2022/09/04 11:53:07;;;;;;;2.30;1.33;;;12.10;99.90;;;;;;4909446;29;20032;-75
2022/09/04 11:55:55;;;;;;;1.65;0.95;;;12.10;99.90;;;;;;4906899;29;20507;-74
2022/09/04 11:58:35;;;;;;;6.35;0.98;;;12.00;99.90;;;;;;4899574;29;20048;-74
2022/09/04 12:01:33;;;;;;;1.67;0.50;;;12.00;99.90;;;;;;4904210;29;20088;-75
2022/09/04 12:04:21;;;;;;;2.83;0.60;;;11.90;99.90;;;;;;4904797;29;20036;-74
2022/09/04 12:07:11;;;;;;;3.10;0.57;;;11.90;99.90;;;;;;4903183;29;20044;-75
2022/09/04 12:10:02;;;;;;;3.35;0.70;;;11.80;99.90;;;;;;4903158;29;20533;-75
2022/09/04 12:12:45;;;;;;;4.68;0.75;;;11.80;99.90;;;;;;4901434;29;20089;-74
2022/09/04 12:15:33;;;;;;;2.50;1.05;;;11.70;99.90;;;;;;4904699;29;20579;-75
2022/09/04 12:18:19;;;;;;;2.25;0.60;;;11.60;99.90;;;;;;4907478;29;20024;-74
2022/09/04 12:21:24;;;;;;;3.50;1.23;;;11.50;99.90;;;;;;4911451;29;20084;-74
2022/09/04 12:24:13;;;;;;;1.67;0.52;;;11.50;99.90;;;;;;4874969;29;20036;-74
2022/09/04 12:27:04;;;;;;;2.17;0.52;;;11.50;99.90;;;;;;4912570;29;20039;-74
2022/09/04 12:29:54;;;;;;;4.40;0.90;;;11.50;99.90;;;;;;4906771;29;20317;-74
2022/09/04 12:32:37;;;;;;;2.30;0.98;;;11.60;99.90;;;;;;4908868;29;20107;-75
2022/09/04 12:35:32;;;;;;;4.82;0.98;;;11.60;99.90;;;;;;4904287;29;20484;-74
2022/09/04 12:38:08;;;;;;;1.88;0.60;;;11.70;99.90;;;;;;4899895;29;20044;-74
2022/09/04 12:41:17;;;;;;;4.47;0.63;;;11.70;99.90;;;;;;4908218;29;20163;-74
2022/09/04 12:43:57;;;;;;;2.20;1.00;;;11.80;99.90;;;;;;4874705;29;20127;-76
2022/09/04 12:46:34;;;;;;;2.92;0.77;;;11.80;99.90;;;;;;4915123;29;20484;-74
2022/09/04 12:49:06;;;;;;;2.67;0.57;;;11.80;99.90;;;;;;4907100;29;20502;-74
2022/09/04 12:52:16;;;;;;;3.05;0.60;;;11.80;99.90;;;;;;4902941;29;20070;-74
2022/09/04 12:55:11;;;;;;;1.67;1.00;;;11.80;99.90;;;;;;4903017;29;20223;-73
2022/09/04 12:57:57;;;;;;;2.80;0.52;;;11.80;99.90;;;;;;4905099;29;20076;-74
2022/09/04 13:00:31;;;;;;;3.85;0.60;;;11.80;99.90;;;;;;4906319;29;20502;-73
2022/09/04 13:03:10;;;;;;;2.72;0.50;;;11.80;99.90;;;;;;4909482;29;20084;-74
2022/09/04 13:06:11;;;;;;;5.72;1.38;;;11.70;99.90;;;;;;4911222;29;20036;-74
2022/09/04 13:09:01;;;;;;;1.48;0.40;;;11.60;99.90;;;;;;4906145;29;20538;-74
2022/09/04 13:11:38;;;;;;;2.22;0.32;;;11.60;99.90;;;;;;4903183;29;20092;-75
2022/09/04 13:14:27;;;;;;;1.95;0.47;;;11.40;99.90;;;;;;4909189;29;20051;-74
2022/09/04 13:17:23;;;;;;;1.15;0.57;;;11.30;99.90;;;;;;4913895;29;20420;-73
2022/09/04 13:20:09;;;;;;;3.80;0.80;;;11.20;99.90;;;;;;4917080;29;20487;-74
2022/09/04 13:23:03;;;;;;;1.85;0.55;;;11.10;99.90;;;;;;4910031;29;20036;-74
2022/09/04 13:25:43;;;;;;;2.40;0.40;;;11.00;99.90;;;;;;4916467;29;20328;-75
2022/09/04 13:28:36;;;;;;;5.38;0.50;;;10.90;99.90;;;;;;4910851;29;20526;-76
2022/09/04 13:31:19;;;;;;;3.83;1.27;;;10.90;99.90;;;;;;4900534;29;20605;-74
2022/09/04 13:33:53;;;;;;;1.23;0.40;;;10.80;99.90;;;;;;4910274;29;20136;-74
2022/09/04 13:36:38;;;;;;;3.30;0.75;;;10.70;99.90;;;;;;4912833;29;20028;-74
2022/09/04 13:39:21;;;;;;;2.80;0.30;;;10.70;99.90;;;;;;4913446;29;20127;-75
2022/09/04 13:41:58;;;;;;;2.85;0.63;;;10.70;99.90;;;;;;4915237;29;20032;-73
2022/09/04 13:44:53;;;;;;;2.30;1.00;;;10.60;99.90;;;;;;4911690;29;20119;-74
2022/09/04 13:47:22;;;;;;;1.35;0.40;;;10.60;99.90;;;;;;4915054;29;20032;-73
2022/09/04 13:49:52;;;;;;;3.42;0.63;;;10.70;99.90;;;;;;4912041;29;20434;-72
2022/09/04 13:52:33;;;;;;;3.47;0.50;;;10.70;99.90;;;;;;4916479;29;20461;-76
2022/09/04 13:55:13;;;;;;;4.18;0.70;;;10.80;99.90;;;;;;4909974;29;20499;-74
2022/09/04 13:57:46;;;;;;;2.28;0.32;;;10.90;99.90;;;;;;4915234;29;20051;-75
2022/09/04 14:00:15;;;;;;;3.08;0.40;;;10.90;99.90;;;;;;4916472;29;20325;-73
2022/09/04 14:02:44;;;;;;;1.25;0.50;;;11.00;99.90;;;;;;4914195;29;20024;-74
2022/09/04 14:05:19;;;;;;;2.70;0.40;;;11.10;99.90;;;;;;4914235;29;20040;-75
2022/09/04 14:07:50;;;;;;;3.40;0.53;;;11.10;99.90;;;;;;4912411;29;20044;-74
2022/09/04 14:10:33;;;;;;;3.28;0.50;;;11.20;99.90;;;;;;4917455;29;20301;-73
2022/09/04 14:13:29;;;;;;;0.93;0.40;;;11.20;99.90;;;;;;4894729;29;20111;-76
2022/09/04 14:16:10;;;;;;;0.75;0.38;;;11.30;99.90;;;;;;4886800;29;20142;-74
2022/09/04 14:19:13;;;;;;;2.85;0.45;;;11.40;99.90;;;;;;4907708;29;20112;-74
2022/09/04 14:22:01;;;;;;;2.85;0.38;;;11.40;99.90;;;;;;4916070;29;20103;-75
2022/09/04 14:24:37;;;;;;;1.15;0.40;;;11.40;99.90;;;;;;4912305;29;20409;-74
2022/09/04 14:27:28;;;;;;;1.38;0.30;;;11.50;99.90;;;;;;4911960;29;20451;-74
2022/09/04 14:30:16;;;;;;;1.45;0.60;;;11.50;99.90;;;;;;4916366;29;20042;-74